Time;durP1;ratioP1;P1;durP2;ratioP2;P2;SDS_P1;SDS_P2;PMS_P1;PMS_P2;Temp;Humidity;BMP_temperature;BMP_pressure;BME280_temperature;BME280_humidity;BME280_pressure;Samples;Min_cycle;Max_cycle;Signal;HPM_P1;HPM_P2
2022/11/20 00:01:26;;;;;;;26.37;17.73;;;;;;;0.74;100.00;98962.56;6155407;23;20266;-81
2022/11/20 00:03:57;;;;;;;23.67;16.80;;;;;;;0.67;100.00;98949.25;6155628;23;20183;-81
2022/11/20 00:06:27;;;;;;;21.57;15.93;;;;;;;0.72;100.00;98954.81;6130502;23;20206;-81
2022/11/20 00:08:56;;;;;;;25.43;17.90;;;;;;;0.69;100.00;98957.81;6156004;23;20203;-82
2022/11/20 00:11:26;;;;;;;22.60;15.80;;;;;;;0.59;100.00;98945.84;6178399;23;20210;-81
2022/11/20 00:13:57;;;;;;;23.87;16.17;;;;;;;0.40;100.00;98955.81;6179669;23;20195;-81
2022/11/20 00:16:26;;;;;;;20.37;15.60;;;;;;;0.38;100.00;98941.13;6154431;23;20210;-81
2022/11/20 00:18:55;;;;;;;21.80;15.23;;;;;;;0.69;100.00;98957.81;6154461;23;20191;-82
2022/11/20 00:21:24;;;;;;;21.50;15.27;;;;;;;0.64;100.00;98938.22;6130181;23;20210;-81
2022/11/20 00:23:53;;;;;;;20.63;14.47;;;;;;;0.43;100.00;98939.63;6177405;23;20227;-81
2022/11/20 00:26:24;;;;;;;22.13;14.73;;;;;;;0.48;100.00;98949.66;6151001;23;20214;-81
2022/11/20 00:28:55;;;;;;;21.13;15.33;;;;;;;0.42;100.00;98942.47;6175681;23;20187;-81
2022/11/20 00:31:25;;;;;;;20.60;14.73;;;;;;;0.51;100.00;98953.78;6152314;23;20210;-82
2022/11/20 00:33:53;;;;;;;20.67;14.73;;;;;;;0.46;100.00;98950.84;6154364;23;20183;-81
2022/11/20 00:36:28;;;;;;;24.20;15.43;;;;;;;0.60;100.00;98955.38;6147221;23;20194;-82
2022/11/20 00:38:58;;;;;;;21.57;14.83;;;;;;;0.59;100.00;98962.47;6180378;23;20234;-81
2022/11/20 00:41:27;;;;;;;22.70;15.17;;;;;;;0.51;100.00;98946.72;6156792;23;20166;-82
2022/11/20 00:43:55;;;;;;;22.87;15.70;;;;;;;0.60;100.00;98963.31;6181293;23;20191;-81
2022/11/20 00:46:25;;;;;;;21.17;15.37;;;;;;;0.59;100.00;98951.94;6154827;23;20210;-81
2022/11/20 00:48:53;;;;;;;20.97;15.47;;;;;;;0.43;100.00;98955.44;6129627;23;20202;-82
2022/11/20 00:51:22;;;;;;;23.53;16.30;;;;;;;0.56;100.00;98973.34;6155834;23;20170;-82
2022/11/20 00:53:51;;;;;;;23.03;15.63;;;;;;;0.64;100.00;98993.59;6155430;23;20178;-81
2022/11/20 00:56:19;;;;;;;22.13;16.37;;;;;;;0.54;100.00;98985.88;6154889;23;20194;-81
2022/11/20 00:58:48;;;;;;;22.67;15.87;;;;;;;0.45;100.00;98986.91;6178980;23;20592;-81
2022/11/20 01:01:23;;;;;;;25.70;16.33;;;;;;;0.50;100.00;98996.94;6168208;23;20226;-81
2022/11/20 01:03:53;;;;;;;24.07;16.30;;;;;;;0.50;100.00;98997.78;6131158;23;20195;-82
2022/11/20 01:06:26;;;;;;;23.83;15.83;;;;;;;0.50;100.00;98994.31;6176294;23;20186;-81
2022/11/20 01:08:57;;;;;;;22.90;16.47;;;;;;;0.51;100.00;99007.34;6170117;23;20185;-81
2022/11/20 01:11:29;;;;;;;20.70;15.57;;;;;;;0.40;100.00;99011.16;6152152;23;20175;-81
2022/11/20 01:13:58;;;;;;;22.60;16.13;;;;;;;0.56;100.00;99009.44;6128957;23;20163;-81
2022/11/20 01:16:38;;;;;;;23.70;15.80;;;;;;;0.54;100.00;99008.78;6147714;23;20171;-81
2022/11/20 01:19:09;;;;;;;23.27;15.67;;;;;;;0.51;100.00;99006.50;6175339;23;20194;-81
2022/11/20 01:21:44;;;;;;;23.40;15.53;;;;;;;0.56;100.00;99007.59;6179375;23;20147;-82
2022/11/20 01:24:14;;;;;;;24.23;16.00;;;;;;;0.60;100.00;99010.75;6177011;23;20195;-81
2022/11/20 01:26:42;;;;;;;23.63;16.07;;;;;;;0.55;100.00;99005.16;6177138;23;20570;-81
2022/11/20 01:29:15;;;;;;;24.83;16.63;;;;;;;0.54;100.00;99006.97;6152115;23;20187;-81
2022/11/20 01:31:43;;;;;;;21.87;15.40;;;;;;;0.62;100.00;99019.28;6127758;23;20163;-81
2022/11/20 01:34:16;;;;;;;23.50;16.67;;;;;;;0.53;100.00;99007.97;6154120;23;20191;-82
2022/11/20 01:44:00;;;;;;;22.97;15.80;;;;;;;0.48;100.00;99002.38;6104400;23;20187;-81
2022/11/20 01:46:35;;;;;;;26.93;16.23;;;;;;;0.56;100.00;98999.69;6123658;23;20183;-81
2022/11/20 01:49:20;;;;;;;23.47;16.57;;;;;;;0.58;100.00;99005.63;6146839;23;20175;-81
2022/11/20 01:51:51;;;;;;;22.30;15.70;;;;;;;0.62;100.00;99000.84;6147684;23;20179;-82
2022/11/20 01:54:23;;;;;;;24.90;16.33;;;;;;;0.61;100.00;98996.56;6122260;23;20171;-81
2022/11/20 01:56:52;;;;;;;23.03;16.07;;;;;;;0.62;100.00;99006.94;6074852;23;20186;-82
2022/11/20 01:59:19;;;;;;;22.13;16.43;;;;;;;0.62;100.00;98991.13;6099496;23;20164;-82
2022/11/20 02:01:47;;;;;;;22.23;16.70;;;;;;;0.69;100.00;98996.53;6124763;23;20202;-81
2022/11/20 02:04:20;;;;;;;21.70;16.60;;;;;;;0.74;100.00;98991.56;6131226;23;20181;-81
2022/11/20 02:06:52;;;;;;;23.17;16.47;;;;;;;0.78;100.00;98998.13;6158262;23;20171;-81
2022/11/20 02:09:19;;;;;;;24.27;17.10;;;;;;;0.69;100.00;98991.25;6184554;23;20186;-81
2022/11/20 02:11:47;;;;;;;22.93;16.80;;;;;;;0.70;100.00;98985.78;6183667;23;20196;-81
2022/11/20 02:14:17;;;;;;;21.97;16.40;;;;;;;0.76;100.00;98997.47;6184863;23;20178;-81
2022/11/20 02:16:46;;;;;;;22.63;16.70;;;;;;;0.80;100.00;98996.97;6183425;23;20178;-81
2022/11/20 02:19:30;;;;;;;23.00;16.43;;;;;;;0.84;100.00;99008.81;6183317;23;20182;-81
2022/11/20 02:22:19;;;;;;;20.90;16.07;;;;;;;0.90;100.00;98999.38;6207732;23;20151;-81
2022/11/20 02:24:49;;;;;;;23.17;16.33;;;;;;;0.88;100.00;98996.13;6207038;23;20229;-81
2022/11/20 02:27:16;;;;;;;22.90;16.27;;;;;;;0.93;100.00;99000.88;6180688;23;20182;-82
2022/11/20 02:30:02;;;;;;;23.00;16.17;;;;;;;0.95;100.00;99004.13;6207379;23;20175;-81
2022/11/20 02:32:34;;;;;;;23.47;17.07;;;;;;;0.87;100.00;98991.81;6182725;23;20174;-81
2022/11/20 02:35:29;;;;;;;21.40;15.97;;;;;;;0.79;100.00;98991.88;6183938;23;20174;-81
2022/11/20 02:38:02;;;;;;;22.00;15.93;;;;;;;0.76;100.00;98997.47;6210432;23;20166;-81
2022/11/20 02:40:31;;;;;;;22.47;16.37;;;;;;;0.76;100.00;99003.56;6209419;23;20158;-81
2022/11/20 02:43:00;;;;;;;21.70;16.10;;;;;;;0.83;100.00;98996.63;6178732;23;20168;-81
2022/11/20 02:45:27;;;;;;;25.37;17.20;;;;;;;0.78;100.00;98977.88;6201780;23;20171;-82
2022/11/20 02:47:55;;;;;;;21.53;16.37;;;;;;;0.91;100.00;98981.75;6152177;23;20249;-82
2022/11/20 02:50:22;;;;;;;21.53;16.40;;;;;;;0.86;100.00;98953.25;6151281;23;20194;-81
2022/11/20 02:52:50;;;;;;;23.27;16.40;;;;;;;0.87;100.00;98961.00;6176247;23;20537;-81
2022/11/20 02:55:17;;;;;;;22.30;16.37;;;;;;;0.94;100.00;98969.03;6128485;23;20186;-81
2022/11/20 02:57:45;;;;;;;22.03;15.73;;;;;;;0.88;100.00;98964.47;6150966;23;20178;-81
2022/11/20 03:00:13;;;;;;;21.10;16.10;;;;;;;0.89;100.00;98974.00;6140718;23;20218;-81
2022/11/20 03:02:41;;;;;;;21.87;15.87;;;;;;;0.90;100.00;98975.66;6144716;23;20612;-81
2022/11/20 03:05:10;;;;;;;22.80;16.47;;;;;;;0.86;100.00;98967.28;6145756;23;20210;-81
2022/11/20 03:07:39;;;;;;;22.93;15.67;;;;;;;0.95;100.00;98977.75;6121196;23;20171;-81
2022/11/20 03:10:07;;;;;;;23.00;16.57;;;;;;;0.93;100.00;98974.50;6145467;23;20191;-82
2022/11/20 03:12:34;;;;;;;20.63;15.53;;;;;;;0.89;100.00;98969.53;6121608;23;20171;-81
2022/11/20 03:15:04;;;;;;;22.80;16.10;;;;;;;0.89;100.00;98955.53;6146592;23;20175;-81
2022/11/20 03:17:32;;;;;;;22.23;16.60;;;;;;;1.01;100.00;98953.34;6122937;23;20228;-81
2022/11/20 03:20:02;;;;;;;21.63;15.23;;;;;;;0.98;100.00;98958.97;6171072;23;20168;-81
2022/11/20 03:22:30;;;;;;;22.73;16.00;;;;;;;1.00;100.00;98973.63;6148220;23;20219;-81
2022/11/20 03:24:58;;;;;;;22.87;15.83;;;;;;;0.95;100.00;98961.94;6148711;23;20210;-81
2022/11/20 03:27:26;;;;;;;22.17;16.27;;;;;;;1.02;100.00;98952.34;6124648;23;20191;-81
2022/11/20 03:29:52;;;;;;;22.50;16.33;;;;;;;1.06;100.00;98964.19;6173292;23;20242;-82
2022/11/20 03:32:20;;;;;;;23.63;16.60;;;;;;;1.10;100.00;98942.56;6124173;23;20202;-81
2022/11/20 03:34:49;;;;;;;23.13;16.23;;;;;;;1.14;100.00;98962.31;6150371;23;20194;-82
2022/11/20 03:37:19;;;;;;;22.97;15.97;;;;;;;1.12;100.00;98964.28;6133585;23;20195;-82
2022/11/20 03:39:52;;;;;;;23.00;16.70;;;;;;;1.06;100.00;98948.34;6181231;23;20207;-82
2022/11/20 03:42:47;;;;;;;23.30;16.27;;;;;;;0.94;100.00;98929.47;6181388;23;20196;-82
2022/11/20 03:45:18;;;;;;;22.87;16.47;;;;;;;0.90;100.00;98930.81;6155440;23;20211;-83
2022/11/20 03:47:47;;;;;;;22.70;15.93;;;;;;;0.83;100.00;98922.78;6180265;23;20273;-82
2022/11/20 03:50:17;;;;;;;23.50;16.27;;;;;;;0.89;100.00;98932.63;6130647;23;20198;-82
2022/11/20 03:52:45;;;;;;;23.93;17.10;;;;;;;0.84;100.00;98929.69;6155724;23;20194;-82
2022/11/20 03:55:15;;;;;;;23.70;16.93;;;;;;;0.92;100.00;98935.91;6156041;23;20194;-82
2022/11/20 03:57:45;;;;;;;24.80;17.93;;;;;;;0.92;100.00;98933.28;6155268;23;20213;-82
2022/11/20 04:00:15;;;;;;;22.77;17.33;;;;;;;0.84;100.00;98918.34;6126847;23;20209;-82
2022/11/20 04:02:44;;;;;;;22.60;16.57;;;;;;;0.91;100.00;98924.53;6167944;23;20153;-82
2022/11/20 04:05:20;;;;;;;23.00;17.20;;;;;;;0.90;100.00;98920.25;6192461;23;20221;-80
2022/11/20 04:08:12;;;;;;;25.93;17.43;;;;;;;0.92;100.00;98925.38;6217701;23;20220;-82
2022/11/20 04:10:43;;;;;;;25.30;17.23;;;;;;;0.86;100.00;98914.53;6240048;23;20254;-82
2022/11/20 04:13:15;;;;;;;27.17;18.27;;;;;;;0.85;100.00;98915.50;6216679;23;20236;-82
2022/11/20 04:15:53;;;;;;;23.37;16.43;;;;;;;0.79;100.00;98915.41;6242084;23;20185;-82
2022/11/20 04:18:23;;;;;;;23.23;16.57;;;;;;;0.70;100.00;98906.69;6212809;23;20209;-82
2022/11/20 04:21:01;;;;;;;22.80;16.93;;;;;;;0.59;100.00;98898.38;6217775;23;20185;-82
2022/11/20 04:23:37;;;;;;;22.97;16.60;;;;;;;0.67;100.00;98907.06;6193924;23;20216;-82
2022/11/20 04:26:12;;;;;;;22.57;16.63;;;;;;;0.58;100.00;98896.72;6217224;23;20145;-82
2022/11/20 04:28:42;;;;;;;24.63;16.30;;;;;;;0.70;100.00;98903.28;6193527;23;20165;-82
2022/11/20 04:31:15;;;;;;;22.37;16.27;;;;;;;0.60;100.00;98903.50;6202725;23;20205;-82
2022/11/20 04:33:49;;;;;;;21.23;16.13;;;;;;;0.49;100.00;98884.59;6212926;23;20208;-82
2022/11/20 04:36:31;;;;;;;21.60;15.93;;;;;;;0.50;100.00;98902.06;6194538;23;20203;-82
2022/11/20 04:39:12;;;;;;;22.97;16.37;;;;;;;0.50;100.00;98899.44;6217607;23;20196;-82
2022/11/20 04:42:36;;;;;;;23.63;16.97;;;;;;;0.46;100.00;98903.41;6191964;23;20189;-82
2022/11/20 04:45:07;;;;;;;25.57;17.17;;;;;;;0.41;100.00;98893.38;6207467;23;20197;-82
2022/11/20 04:47:36;;;;;;;23.77;16.60;;;;;;;0.41;100.00;98896.03;6215189;23;20166;-82
2022/11/20 04:50:08;;;;;;;23.87;17.07;;;;;;;0.46;100.00;98904.22;6191521;23;20193;-81
2022/11/20 04:52:39;;;;;;;24.87;16.57;;;;;;;0.43;100.00;98902.75;6186341;23;20173;-82
2022/11/20 04:55:08;;;;;;;25.43;17.20;;;;;;;0.44;100.00;98888.56;6185702;23;20170;-82
2022/11/20 04:57:40;;;;;;;23.67;16.73;;;;;;;0.43;100.00;98878.19;6168928;23;20165;-82
2022/11/20 05:00:09;;;;;;;24.40;16.80;;;;;;;0.42;100.00;98880.00;6241557;23;20174;-82
2022/11/20 05:02:41;;;;;;;24.00;16.37;;;;;;;0.39;100.00;98875.09;6217934;23;20161;-82
2022/11/20 05:05:18;;;;;;;25.17;17.27;;;;;;;0.33;100.00;98875.78;6193555;23;20177;-82
2022/11/20 05:07:49;;;;;;;24.57;17.03;;;;;;;0.29;100.00;98894.75;6216850;23;20181;-82
2022/11/20 05:10:33;;;;;;;28.47;19.00;;;;;;;0.21;100.00;98874.53;6242596;23;20173;-82
2022/11/20 05:13:07;;;;;;;27.50;19.20;;;;;;;0.26;100.00;98887.19;6193313;23;20165;-82
2022/11/20 05:15:35;;;;;;;27.47;19.07;;;;;;;0.20;100.00;98874.69;6216181;23;20149;-82
2022/11/20 05:18:08;;;;;;;31.87;21.87;;;;;;;0.15;100.00;98871.75;6193183;23;20322;-82
2022/11/20 05:20:36;;;;;;;32.73;23.53;;;;;;;0.15;100.00;98884.91;6216859;23;20141;-82
2022/11/20 05:23:04;;;;;;;28.40;19.20;;;;;;;0.15;100.00;98877.03;6214272;23;20228;-82
2022/11/20 05:25:32;;;;;;;28.17;19.90;;;;;;;0.16;100.00;98876.84;6160250;23;20213;-82
2022/11/20 05:28:02;;;;;;;25.50;18.70;;;;;;;0.24;100.00;98873.34;6191376;23;20193;-82
2022/11/20 05:30:32;;;;;;;29.60;20.83;;;;;;;0.11;100.00;98857.28;6241768;23;20186;-82
2022/11/20 05:33:30;;;;;;;31.07;21.40;;;;;;;0.22;100.00;98870.91;6222739;23;20173;-82
2022/11/20 05:36:04;;;;;;;28.67;19.90;;;;;;;0.23;100.00;98874.38;6218338;23;20145;-81
2022/11/20 05:38:36;;;;;;;29.10;20.33;;;;;;;0.17;100.00;98867.97;6217556;23;20162;-82
2022/11/20 05:41:23;;;;;;;28.53;19.87;;;;;;;0.12;100.00;98870.28;6218202;23;20154;-82
2022/11/20 05:43:54;;;;;;;26.87;18.83;;;;;;;0.06;100.00;98864.88;6218036;23;20153;-82
2022/11/20 05:46:34;;;;;;;25.30;18.00;;;;;;;0.00;100.00;98874.31;6182211;23;20178;-82
2022/11/20 05:49:04;;;;;;;26.27;18.07;;;;;;;0.08;100.00;98878.72;6202130;23;20204;-81
2022/11/20 05:51:42;;;;;;;26.80;17.83;;;;;;;0.24;100.00;98883.91;6191535;23;20200;-81
2022/11/20 05:54:13;;;;;;;25.67;17.67;;;;;;;0.32;100.00;98891.78;6177297;23;20189;-80
2022/11/20 05:57:01;;;;;;;26.07;17.77;;;;;;;0.37;100.00;98876.28;6216339;23;20252;-81
2022/11/20 05:59:51;;;;;;;25.73;17.13;;;;;;;0.34;100.00;98893.25;6242738;23;20280;-81
2022/11/20 06:02:21;;;;;;;26.50;17.67;;;;;;;0.06;100.00;98896.47;6216402;23;20189;-81
2022/11/20 06:04:54;;;;;;;25.00;17.80;;;;;;;0.19;100.00;98910.75;6214612;23;20284;-81
2022/11/20 08:14:15;;;;;;;27.07;20.07;;;;;;;2.63;100.00;99016.03;6169760;23;20197;-81
2022/11/20 08:16:49;;;;;;;29.10;21.23;;;;;;;2.94;100.00;99010.53;6155296;23;20226;-80
2022/11/20 08:19:17;;;;;;;28.33;20.00;;;;;;;3.06;100.00;99003.75;6155215;23;20202;-81
2022/11/20 08:21:44;;;;;;;29.70;20.47;;;;;;;3.09;100.00;99006.81;6153945;23;20211;-80
2022/11/20 08:24:11;;;;;;;26.47;20.00;;;;;;;3.01;100.00;99003.47;6155641;23;20210;-80
2022/11/20 08:26:40;;;;;;;31.13;20.57;;;;;;;3.10;100.00;99005.00;6156774;23;20281;-81
2022/11/20 08:29:07;;;;;;;30.50;21.80;;;;;;;3.19;100.00;99003.06;6130051;23;20214;-80
2022/11/20 08:31:34;;;;;;;29.80;21.43;;;;;;;3.27;100.00;99009.03;6154438;23;20210;-80
2022/11/20 08:34:01;;;;;;;28.57;21.37;;;;;;;3.40;100.00;99013.69;6155453;23;20215;-81
2022/11/20 08:36:34;;;;;;;28.87;20.97;;;;;;;3.41;100.00;99013.47;6157456;23;20262;-81
2022/11/20 08:39:01;;;;;;;28.00;20.30;;;;;;;3.58;100.00;99014.06;6156304;23;20207;-81
2022/11/20 08:41:30;;;;;;;25.30;20.20;;;;;;;3.68;100.00;99008.44;6154698;23;20210;-81
2022/11/20 08:43:59;;;;;;;26.70;19.83;;;;;;;3.66;100.00;99013.91;6155159;23;20213;-81
2022/11/20 08:46:35;;;;;;;27.73;20.67;;;;;;;3.64;100.00;99013.28;6156013;23;20202;-81
2022/11/20 08:49:02;;;;;;;25.63;20.07;;;;;;;3.74;100.00;99015.59;6154881;23;20233;-81
2022/11/20 08:51:29;;;;;;;27.20;20.60;;;;;;;3.69;100.00;99010.06;6156111;23;20215;-81
2022/11/20 08:53:55;;;;;;;24.20;19.40;;;;;;;3.89;100.00;99016.34;6156126;23;20195;-80
2022/11/20 08:56:22;;;;;;;25.37;18.87;;;;;;;4.02;100.00;99003.19;6155214;23;20199;-81
2022/11/20 08:58:51;;;;;;;28.33;19.90;;;;;;;4.25;100.00;99009.06;6157707;23;20199;-81
2022/11/20 09:01:38;;;;;;;26.40;19.20;;;;;;;4.47;100.00;99003.72;6155497;23;20238;-81
2022/11/20 09:04:05;;;;;;;25.83;19.70;;;;;;;4.55;100.00;99011.50;6155311;23;20206;-80
2022/11/20 09:06:32;;;;;;;26.20;20.43;;;;;;;4.41;100.00;99005.31;6156578;23;20240;-80
2022/11/20 09:08:58;;;;;;;28.03;21.63;;;;;;;4.46;100.00;99010.03;6156381;23;20211;-80
2022/11/20 09:11:32;;;;;;;29.60;22.97;;;;;;;4.38;100.00;99016.31;6156946;23;20226;-81
2022/11/20 09:13:58;;;;;;;29.97;23.77;;;;;;;4.26;100.00;99017.84;6110064;23;1083655;-82
2022/11/20 09:16:25;;;;;;;27.60;20.67;;;;;;;4.17;100.00;99003.94;6158173;23;20199;-80
2022/11/20 09:18:51;;;;;;;26.73;20.07;;;;;;;4.36;100.00;99005.88;6157652;23;20211;-80
2022/11/20 09:21:38;;;;;;;26.30;20.47;;;;;;;4.55;100.00;98993.75;6155068;23;20215;-80
2022/11/20 09:24:05;;;;;;;26.63;19.67;;;;;;;4.58;100.00;98989.88;6157959;23;20193;-80
2022/11/20 09:26:31;;;;;;;26.60;20.03;;;;;;;4.69;100.00;98979.53;6157699;23;20280;-80
2022/11/20 09:28:58;;;;;;;23.87;18.73;;;;;;;4.94;100.00;98982.50;6158452;23;20230;-80
2022/11/20 09:31:26;;;;;;;23.63;19.07;;;;;;;5.01;100.00;98987.81;6158050;23;20230;-81
2022/11/20 09:33:52;;;;;;;24.13;19.37;;;;;;;5.21;100.00;98986.03;6157339;23;20211;-80
2022/11/20 09:36:19;;;;;;;24.73;19.43;;;;;;;5.45;100.00;98984.66;6159319;23;20209;-80
2022/11/20 09:38:46;;;;;;;25.00;19.37;;;;;;;5.59;100.00;98978.34;6159947;23;20202;-81
2022/11/20 09:41:47;;;;;;;28.27;21.87;;;;;;;5.69;100.00;98984.88;6159040;23;20203;-80
2022/11/20 09:44:31;;;;;;;24.87;19.83;;;;;;;5.66;100.00;98982.63;6157939;23;20211;-80
2022/11/20 09:47:08;;;;;;;25.37;19.70;;;;;;;5.89;100.00;98984.09;6157306;23;20248;-80
2022/11/20 09:49:37;;;;;;;25.07;20.00;;;;;;;5.98;100.00;98982.84;6131681;23;20269;-80
2022/11/20 09:52:38;;;;;;;24.87;19.70;;;;;;;5.99;100.00;98987.97;6157390;23;20212;-80
2022/11/20 09:55:09;;;;;;;22.23;18.27;;;;;;;5.81;100.00;98970.97;6157501;23;20541;-80
2022/11/20 09:57:38;;;;;;;25.33;19.33;;;;;;;5.94;100.00;98979.81;6156260;23;20281;-80
2022/11/20 10:00:06;;;;;;;23.60;17.90;;;;;;;6.05;100.00;98978.38;6155887;23;20734;-80
2022/11/20 10:02:52;;;;;;;24.87;19.60;;;;;;;6.10;100.00;98971.41;6156264;23;20202;-80
2022/11/20 10:05:23;;;;;;;24.10;19.50;;;;;;;6.11;100.00;98962.38;6155998;23;20215;-80
2022/11/20 10:08:01;;;;;;;25.10;19.53;;;;;;;6.19;100.00;98964.84;6155590;23;20309;-80
2022/11/20 10:10:33;;;;;;;22.77;18.50;;;;;;;6.08;100.00;98970.78;6155182;23;20277;-80
2022/11/20 10:13:11;;;;;;;23.70;19.00;;;;;;;6.34;100.00;98969.94;6157181;23;20210;-80
2022/11/20 10:15:47;;;;;;;23.33;18.67;;;;;;;6.60;100.00;98972.53;6156652;23;20234;-81
2022/11/20 10:18:27;;;;;;;24.30;18.60;;;;;;;6.63;100.00;98968.59;6155489;23;20249;-81
2022/11/20 10:21:05;;;;;;;24.33;18.07;;;;;;;6.77;100.00;98956.88;6158950;23;20206;-80
2022/11/20 10:24:08;;;;;;;25.87;20.57;;;;;;;6.74;100.00;98951.16;6162636;23;20736;-80
2022/11/20 10:26:47;;;;;;;23.73;19.13;;;;;;;6.79;100.00;98948.69;6140984;23;20225;-80
2022/11/20 10:29:19;;;;;;;27.73;21.47;;;;;;;6.72;100.00;98948.72;6173381;23;20520;-81
2022/11/20 10:31:50;;;;;;;26.17;21.20;;;;;;;6.77;100.00;98956.06;6158100;23;20683;-80
2022/11/20 10:34:25;;;;;;;27.03;21.80;;;;;;;6.65;100.00;98953.25;6159264;23;20210;-80
2022/11/20 10:36:58;;;;;;;27.70;21.33;;;;;;;6.42;100.00;98945.75;6160768;23;20233;-80
2022/11/20 10:39:32;;;;;;;26.00;20.37;;;;;;;6.44;100.00;98949.00;6160350;23;20612;-80
2022/11/20 10:41:59;;;;;;;25.80;20.57;;;;;;;6.49;100.00;98941.22;6160657;23;20237;-80
2022/11/20 10:47:16;;;;;;;28.77;22.40;;;;;;;7.01;100.00;98940.19;6156880;23;20224;-79
2022/11/20 10:49:49;;;;;;;32.50;23.67;;;;;;;7.19;100.00;98935.97;6155238;23;20230;-79
2022/11/20 10:52:31;;;;;;;26.50;19.60;;;;;;;7.42;100.00;98942.38;6156783;23;20268;-79
2022/11/20 10:55:18;;;;;;;26.30;19.17;;;;;;;7.59;100.00;98934.69;6155784;23;20210;-80
2022/11/20 10:57:48;;;;;;;24.97;19.93;;;;;;;7.62;100.00;98931.56;6157006;23;20246;-80
2022/11/20 11:00:17;;;;;;;32.83;22.60;;;;;;;7.65;100.00;98930.34;6156136;23;20211;-79
2022/11/20 11:02:51;;;;;;;26.00;19.87;;;;;;;7.77;100.00;98928.59;6155418;23;20207;-79
2022/11/20 11:05:40;;;;;;;27.43;21.33;;;;;;;7.83;100.00;98925.06;6156799;23;20264;-79
2022/11/20 11:08:12;;;;;;;27.53;22.00;;;;;;;7.87;100.00;98920.91;6155677;23;20270;-79
2022/11/20 11:10:53;;;;;;;28.33;22.00;;;;;;;7.87;100.00;98916.38;6156105;23;20226;-80
2022/11/20 11:13:25;;;;;;;28.13;21.17;;;;;;;7.92;100.00;98908.53;6157674;23;20239;-79
2022/11/20 11:15:52;;;;;;;28.30;20.37;;;;;;;8.07;100.00;98908.16;6155832;23;20212;-80
2022/11/20 11:18:27;;;;;;;25.17;20.23;;;;;;;8.08;100.00;98915.16;6180473;23;20214;-80
2022/11/20 11:20:55;;;;;;;27.67;21.87;;;;;;;8.28;100.00;98922.94;6157088;23;20198;-80
2022/11/20 11:23:41;;;;;;;29.73;21.73;;;;;;;8.31;100.00;98901.19;6155350;23;20549;-79
2022/11/20 11:26:25;;;;;;;25.90;20.50;;;;;;;8.45;100.00;98901.84;6177335;23;20284;-80
2022/11/20 11:29:03;;;;;;;29.90;22.20;;;;;;;8.58;100.00;98913.22;6154550;23;20286;-81
2022/11/20 11:31:34;;;;;;;27.93;20.67;;;;;;;8.67;100.00;98901.19;6154226;23;20214;-80
2022/11/20 11:34:18;;;;;;;25.57;19.93;;;;;;;8.66;100.00;98899.53;6153429;23;20216;-80
2022/11/20 11:36:56;;;;;;;24.80;19.20;;;;;;;8.77;100.00;98898.75;6156853;23;20206;-80
2022/11/20 11:39:23;;;;;;;24.60;18.23;;;;;;;8.72;100.00;98893.31;6156990;23;20597;-80
2022/11/20 11:41:51;;;;;;;27.10;21.63;;;;;;;8.73;100.00;98888.75;6156754;23;20268;-80
2022/11/20 11:47:24;;;;;;;23.47;18.43;;;;;;;8.66;100.00;98888.03;6156256;23;20207;-80
2022/11/20 11:50:09;;;;;;;21.07;17.23;;;;;;;8.69;100.00;98887.59;6179520;23;20730;-80
2022/11/20 11:52:47;;;;;;;23.13;17.63;;;;;;;8.57;100.00;98879.53;6155461;23;20202;-80
2022/11/20 11:55:54;;;;;;;21.13;17.43;;;;;;;8.59;100.00;98879.28;6154544;23;20576;-80
2022/11/20 11:58:36;;;;;;;22.23;17.20;;;;;;;8.62;100.00;98870.84;6089749;23;20549;-80
2022/11/20 12:01:10;;;;;;;22.93;18.13;;;;;;;8.56;100.00;98875.22;6124793;23;20215;-79
2022/11/20 12:03:38;;;;;;;19.70;15.80;;;;;;;8.45;100.00;98870.63;6125138;23;20218;-80
2022/11/20 12:06:14;;;;;;;24.40;18.23;;;;;;;8.32;100.00;98865.44;6110074;23;20203;-81
2022/11/20 12:08:49;;;;;;;25.30;19.83;;;;;;;8.23;100.00;98862.25;6125293;23;20207;-80
2022/11/20 12:11:22;;;;;;;24.00;18.30;;;;;;;8.16;100.00;98864.19;6124817;23;20203;-80
2022/11/20 12:14:15;;;;;;;22.73;17.40;;;;;;;8.01;100.00;98862.91;6124942;23;20207;-79
2022/11/20 12:16:41;;;;;;;24.90;19.20;;;;;;;7.84;100.00;98862.66;6124966;23;20719;-80
2022/11/20 12:19:13;;;;;;;24.60;18.27;;;;;;;7.80;100.00;98864.13;6125059;23;20203;-80
2022/11/20 12:22:11;;;;;;;29.53;24.60;;;;;;;7.79;100.00;98862.53;6124644;23;20286;-80
2022/11/20 12:24:49;;;;;;;25.13;20.70;;;;;;;7.83;100.00;98861.03;6155865;23;20206;-80
2022/11/20 12:27:41;;;;;;;26.80;21.83;;;;;;;7.76;100.00;98868.28;6179918;23;20215;-80
2022/11/20 12:30:13;;;;;;;25.27;20.53;;;;;;;7.68;100.00;98865.91;6154642;23;20230;-79
2022/11/20 12:33:07;;;;;;;31.03;24.27;;;;;;;7.70;100.00;98861.97;6179908;23;20230;-80
2022/11/20 12:35:55;;;;;;;24.30;19.20;;;;;;;7.65;100.00;98867.13;6179986;23;20203;-80
2022/11/20 12:38:40;;;;;;;28.07;22.03;;;;;;;7.64;100.00;98856.72;6157017;23;20646;-80
2022/11/20 12:47:31;;;;;;;22.37;17.00;;;;;;;7.61;100.00;98857.13;6176194;23;20214;-79
2022/11/20 12:50:18;;;;;;;43.07;27.10;;;;;;;7.80;100.00;98862.28;6154884;23;20299;-80
2022/11/20 12:52:55;;;;;;;27.80;20.13;;;;;;;7.59;100.00;98859.22;6148376;23;20717;-79
2022/11/20 12:55:33;;;;;;;65.83;41.73;;;;;;;7.60;100.00;98856.34;6126215;23;20278;-80
2022/11/20 12:58:18;;;;;;;28.83;21.30;;;;;;;7.64;100.00;98849.53;6127175;23;20212;-80
2022/11/20 13:01:49;;;;;;;21.27;16.07;;;;;;;7.57;100.00;98850.59;6155085;23;20202;-80
2022/11/20 13:04:40;;;;;;;18.60;14.60;;;;;;;7.44;100.00;98848.88;6066411;23;20256;-79
2022/11/20 13:07:10;;;;;;;32.77;24.17;;;;;;;7.30;100.00;98850.84;6066765;23;20212;-80
2022/11/20 13:09:44;;;;;;;22.30;16.37;;;;;;;7.38;100.00;98855.91;6143119;23;20257;-80
2022/11/20 13:12:22;;;;;;;21.87;16.13;;;;;;;7.32;100.00;98845.31;6157491;23;20231;-80
2022/11/20 13:15:11;;;;;;;45.73;29.10;;;;;;;7.25;100.00;98848.00;6154773;23;20206;-80
2022/11/20 13:17:45;;;;;;;45.87;30.47;;;;;;;7.08;100.00;98846.94;6155988;23;20723;-80
2022/11/20 13:20:15;;;;;;;34.93;24.13;;;;;;;6.91;100.00;98851.13;6179529;23;20246;-80
2022/11/20 13:22:46;;;;;;;47.50;32.33;;;;;;;6.79;100.00;98848.34;6156281;23;20206;-80
2022/11/20 13:25:25;;;;;;;31.33;20.90;;;;;;;6.58;100.00;98849.47;6156440;23;20258;-80
2022/11/20 13:27:52;;;;;;;26.20;19.17;;;;;;;6.58;100.00;98849.47;6156354;23;20228;-80
2022/11/20 13:30:24;;;;;;;27.00;20.80;;;;;;;6.56;100.00;98854.19;6165512;23;20220;-80
2022/11/20 13:33:04;;;;;;;22.97;18.10;;;;;;;6.53;100.00;98848.50;6130729;23;20207;-81
2022/11/20 13:35:33;;;;;;;20.17;16.03;;;;;;;6.45;100.00;98844.22;6157746;23;20214;-80
2022/11/20 13:38:00;;;;;;;22.73;16.40;;;;;;;6.49;100.00;98844.59;6155384;23;20207;-80
2022/11/20 13:40:27;;;;;;;22.77;16.03;;;;;;;6.53;100.00;98851.16;6156694;23;20216;-80
2022/11/20 13:42:53;;;;;;;20.17;15.57;;;;;;;6.55;100.00;98841.91;6155257;23;20209;-80
2022/11/20 13:45:28;;;;;;;19.63;15.50;;;;;;;6.56;100.00;98848.06;6156163;23;20228;-80
2022/11/20 13:47:56;;;;;;;21.30;16.43;;;;;;;6.59;100.00;98836.97;6156370;23;20206;-80
2022/11/20 13:50:48;;;;;;;22.20;17.47;;;;;;;6.68;100.00;98838.34;6154117;23;20210;-80
2022/11/20 13:53:40;;;;;;;20.50;16.87;;;;;;;6.70;100.00;98836.31;6155473;23;20269;-80
2022/11/20 13:56:36;;;;;;;21.77;16.90;;;;;;;6.59;100.00;98831.66;6159509;23;20286;-80
2022/11/20 13:59:41;;;;;;;21.60;16.80;;;;;;;6.55;100.00;98831.28;6155767;23;20202;-80
2022/11/20 14:02:12;;;;;;;21.73;16.83;;;;;;;6.54;100.00;98816.31;6149865;23;20214;-81
2022/11/20 14:04:53;;;;;;;26.53;18.53;;;;;;;6.51;100.00;98816.75;6182949;23;20208;-80
2022/11/20 14:07:22;;;;;;;24.07;19.10;;;;;;;6.64;100.00;98814.03;6159683;23;20236;-80
2022/11/20 14:09:54;;;;;;;29.40;23.40;;;;;;;6.55;100.00;98815.31;6158300;23;20283;-80
2022/11/20 14:12:30;;;;;;;41.67;36.60;;;;;;;6.53;100.00;98813.91;6158551;23;20323;-80
2022/11/20 14:14:57;;;;;;;37.97;33.87;;;;;;;6.47;100.00;98812.91;6160313;23;20221;-80